createdAt,value
2022-12-01T11:26:28.674Z,7.63
2022-12-01T11:31:44.147Z,6.45
2022-12-01T11:36:49.501Z,9.43
2022-12-01T11:41:57.578Z,8.65
2022-12-01T11:47:23.285Z,8.27
2022-12-01T11:52:28.225Z,9.48
2022-12-01T11:57:34.654Z,6.95
2022-12-01T12:02:51.793Z,8.10
2022-12-01T12:08:17.197Z,8.93
2022-12-01T12:13:40.801Z,8.73
2022-12-01T12:19:06.796Z,9.63
2022-12-01T12:24:27.194Z,9.93
2022-12-01T12:29:43.681Z,6.63
2022-12-01T12:34:54.591Z,10.40
2022-12-01T12:40:44.643Z,7.80
2022-12-01T12:46:11.792Z,8.57
2022-12-01T12:51:28.967Z,10.35
2022-12-01T12:56:34.470Z,9.60
2022-12-01T13:01:48.428Z,10.13
2022-12-01T13:06:59.231Z,8.45
2022-12-01T13:12:10.554Z,9.60
2022-12-01T13:17:23.695Z,10.73
2022-12-01T13:22:33.495Z,12.48
2022-12-01T13:27:40.825Z,9.32
2022-12-01T13:32:43.449Z,7.60
2022-12-01T13:37:45.535Z,8.98
2022-12-01T13:43:10.367Z,11.82
2022-12-01T13:48:48.308Z,10.73
2022-12-01T13:54:03.066Z,10.32
2022-12-01T14:00:03.592Z,11.60
2022-12-01T14:05:23.477Z,13.15
2022-12-01T14:10:31.813Z,10.30
2022-12-01T14:15:43.056Z,11.63
2022-12-01T14:20:47.259Z,12.65
2022-12-01T14:26:14.871Z,10.38
2022-12-01T14:31:17.074Z,11.10
2022-12-01T14:36:28.796Z,13.20
2022-12-01T14:41:32.639Z,12.63
2022-12-01T14:46:45.843Z,10.80
2022-12-01T14:51:51.789Z,12.43
2022-12-01T14:57:04.363Z,10.73
2022-12-01T15:02:12.487Z,11.23
2022-12-01T15:07:21.667Z,11.88
2022-12-01T15:12:29.863Z,11.38
2022-12-01T15:17:36.098Z,11.95
2022-12-01T15:22:41.591Z,14.73
2022-12-01T15:27:44.336Z,13.18
2022-12-01T15:32:46.504Z,11.07
2022-12-01T15:37:49.452Z,13.15
2022-12-01T15:43:06.546Z,12.35
2022-12-01T15:48:17.334Z,12.20
2022-12-01T15:53:33.333Z,12.60
2022-12-01T15:58:42.261Z,13.65
2022-12-01T16:03:58.770Z,11.23
2022-12-01T16:09:18.937Z,10.98
2022-12-01T16:14:26.722Z,11.68
2022-12-01T16:19:33.992Z,12.05
2022-12-01T16:24:48.018Z,14.13
2022-12-01T16:30:05.896Z,12.40
2022-12-01T16:35:31.113Z,15.30
2022-12-01T16:40:33.573Z,12.48
2022-12-01T16:45:36.083Z,10.65
2022-12-01T16:50:39.151Z,16.23
2022-12-01T16:55:46.758Z,14.98
2022-12-01T17:00:53.233Z,12.60
2022-12-01T17:05:56.103Z,14.57
2022-12-01T17:10:58.651Z,9.52
2022-12-01T17:16:06.850Z,16.50
2022-12-01T17:21:11.754Z,16.50
2022-12-01T17:26:19.462Z,12.05
2022-12-01T17:31:25.883Z,14.88
2022-12-01T17:36:28.082Z,12.40
2022-12-01T17:41:35.944Z,11.75
2022-12-01T17:46:39.236Z,13.35
2022-12-01T17:51:42.215Z,13.07
2022-12-01T17:56:44.331Z,12.45
2022-12-01T18:01:47.341Z,11.32
2022-12-01T18:11:57.801Z,9.95
2022-12-01T18:17:00.293Z,12.20
2022-12-01T18:22:02.796Z,12.02
2022-12-01T18:27:05.109Z,11.13
2022-12-01T18:32:08.723Z,10.45
2022-12-01T18:37:11.162Z,8.20
2022-12-01T18:42:13.712Z,9.65
2022-12-01T18:47:16.429Z,6.75
2022-12-01T18:52:18.520Z,9.25
2022-12-01T18:57:21.200Z,8.15
2022-12-01T19:02:23.777Z,10.55
2022-12-01T19:07:29.744Z,8.80
2022-12-01T19:12:37.756Z,9.63
2022-12-01T19:22:45.393Z,11.43
2022-12-01T19:27:48.543Z,12.00
2022-12-01T19:37:53.486Z,11.02
2022-12-01T19:42:57.054Z,11.15
2022-12-01T19:47:59.544Z,9.77
2022-12-01T19:53:02.642Z,9.30
2022-12-01T19:58:06.707Z,8.55
2022-12-01T20:03:08.905Z,10.25
2022-12-01T20:08:14.391Z,7.82
2022-12-01T20:13:17.040Z,10.68
2022-12-01T20:18:19.199Z,9.40
2022-12-01T20:23:21.739Z,8.70
2022-12-01T20:28:26.355Z,8.57
2022-12-01T20:33:29.734Z,8.70
2022-12-01T20:38:33.052Z,7.40
2022-12-01T20:43:35.800Z,7.35
2022-12-01T20:48:38.500Z,8.50
2022-12-01T20:53:54.461Z,8.48
2022-12-01T20:59:03.901Z,7.50
2022-12-01T21:04:06.975Z,6.03
2022-12-01T21:09:09.202Z,7.13
2022-12-01T21:14:19.992Z,4.53
2022-12-01T21:19:30.808Z,5.30
2022-12-01T21:24:36.808Z,7.65
2022-12-01T21:29:47.662Z,7.93
2022-12-01T21:34:50.119Z,12.50
2022-12-01T21:39:53.607Z,9.25
2022-12-01T21:44:56.951Z,6.65
2022-12-01T21:50:03.053Z,12.32
2022-12-01T21:55:17.006Z,7.28
2022-12-01T22:00:33.070Z,9.23
